Time;durP1;ratioP1;P1;durP2;ratioP2;P2;SDS_P1;SDS_P2;PMS_P1;PMS_P2;Temp;Humidity;BMP_temperature;BMP_pressure;BME280_temperature;BME280_humidity;BME280_pressure;Samples;Min_cycle;Max_cycle;Signal;HPM_P1;HPM_P2
2022/06/17 00:02:11;;;;;;;6.38;3.83;;;;;;;15.84;65.77;99354.50;5060915;28;20024;-63
2022/06/17 00:04:37;;;;;;;7.45;3.97;;;;;;;15.77;66.38;99355.69;5066603;28;20080;-63
2022/06/17 00:07:07;;;;;;;6.82;3.53;;;;;;;15.77;66.28;99344.41;5033416;28;20037;-63
2022/06/17 00:09:35;;;;;;;9.38;3.60;;;;;;;15.54;66.37;99304.56;5052150;28;20035;-63
2022/06/17 00:12:03;;;;;;;6.30;3.70;;;;;;;15.79;66.51;99350.41;5046660;28;20056;-63
2022/06/17 00:14:33;;;;;;;9.02;3.70;;;;;;;15.76;66.50;99346.16;5053204;28;20040;-63
2022/06/17 00:17:04;;;;;;;10.27;4.15;;;;;;;15.63;66.75;99340.66;5053185;28;20036;-63
2022/06/17 00:19:29;;;;;;;8.68;3.90;;;;;;;15.59;67.10;99336.53;5053317;28;20114;-63
2022/06/17 00:21:56;;;;;;;6.15;3.40;;;;;;;15.53;67.72;99339.41;5052969;28;20037;-63
2022/06/17 00:24:26;;;;;;;8.52;4.05;;;;;;;15.28;67.51;99298.84;5053095;28;20029;-63
2022/06/17 00:26:54;;;;;;;7.28;3.63;;;;;;;15.51;67.14;99352.53;5052750;28;20087;-63
2022/06/17 00:29:21;;;;;;;8.95;3.67;;;;;;;15.47;68.00;99353.59;5051618;28;20394;-64
2022/06/17 00:31:47;;;;;;;6.55;3.65;;;;;;;15.43;67.94;99359.06;5051526;28;20036;-64
2022/06/17 00:34:13;;;;;;;6.63;3.00;;;;;;;15.32;68.74;99363.00;5052979;28;20391;-64
2022/06/17 00:36:40;;;;;;;5.50;3.42;;;;;;;15.30;68.53;99361.38;5052905;28;20049;-65
2022/06/17 00:39:15;;;;;;;7.45;3.47;;;;;;;15.02;68.60;99313.06;5052623;28;20063;-65
2022/06/17 00:41:44;;;;;;;7.50;3.28;;;;;;;15.17;67.90;99329.78;5052857;28;20023;-65
2022/06/17 00:44:40;;;;;;;7.22;3.42;;;;;;;15.33;68.50;99354.28;5059682;28;20024;-64
2022/06/17 00:47:32;;;;;;;5.50;3.40;;;;;;;15.35;68.46;99362.88;5054360;28;20052;-64
2022/06/17 00:50:15;;;;;;;4.10;3.10;;;;;;;15.24;69.48;99367.72;5053119;28;20040;-64
2022/06/17 00:52:49;;;;;;;9.02;3.38;;;;;;;15.22;69.21;99363.50;5055582;28;20040;-63
2022/06/17 00:55:27;;;;;;;6.72;3.28;;;;;;;15.13;68.84;99357.78;5055600;28;20381;-63
2022/06/17 00:57:53;;;;;;;6.78;3.22;;;;;;;15.20;68.87;99368.78;5032698;28;20056;-63
2022/06/17 01:00:22;;;;;;;4.95;2.67;;;;;;;15.19;68.94;99361.88;5032264;28;20473;-64
2022/06/17 01:03:25;;;;;;;7.13;3.17;;;;;;;15.27;69.40;99367.59;5032255;28;20025;-63
2022/06/17 01:06:01;;;;;;;8.05;3.50;;;;;;;15.06;69.57;99348.53;5041030;28;20041;-63
2022/06/17 01:11:24;;;;;;;8.80;3.30;;;;;;;15.10;69.74;99376.19;5043883;28;20504;-64
2022/06/17 01:13:50;;;;;;;6.00;3.38;;;;;;;15.10;69.41;99370.97;5040519;28;20149;-64
2022/06/17 01:16:21;;;;;;;5.30;3.40;;;;;;;15.09;69.33;99376.25;5072328;28;20557;-63
2022/06/17 01:18:49;;;;;;;7.93;3.20;;;;;;;15.08;70.03;99375.41;5032312;28;20482;-63
2022/06/17 01:21:49;;;;;;;10.15;3.60;;;;;;;15.04;69.31;99373.84;5063420;28;20035;-64
2022/06/17 01:24:15;;;;;;;7.35;3.47;;;;;;;15.11;69.27;99375.28;5060779;28;20506;-63
2022/06/17 01:26:41;;;;;;;6.50;3.78;;;;;;;15.16;69.51;99372.44;5071972;28;20547;-63
2022/06/17 01:29:12;;;;;;;7.13;3.78;;;;;;;15.18;69.54;99374.06;5058131;28;20025;-63
2022/06/17 01:31:39;;;;;;;7.93;3.50;;;;;;;15.24;69.19;99372.13;5051723;28;20071;-64
2022/06/17 01:34:05;;;;;;;6.88;3.97;;;;;;;15.24;69.92;99367.72;5050812;28;20112;-63
2022/06/17 01:36:31;;;;;;;4.32;3.13;;;;;;;15.28;69.21;99377.09;5051835;28;20132;-63
2022/06/17 01:38:58;;;;;;;10.38;3.72;;;;;;;15.25;69.43;99358.13;5064848;28;20474;-63
2022/06/17 01:41:27;;;;;;;9.02;3.45;;;;;;;15.01;69.39;99316.63;5054627;28;20029;-63
2022/06/17 01:44:06;;;;;;;5.65;3.30;;;;;;;15.34;69.66;99381.19;5038407;28;20029;-62
2022/06/17 01:46:43;;;;;;;10.10;3.88;;;;;;;15.34;70.02;99375.97;5037538;28;20095;-63
2022/06/17 01:49:38;;;;;;;7.90;3.50;;;;;;;15.33;69.32;99369.94;5053837;28;20033;-62
2022/06/17 01:52:13;;;;;;;7.55;3.95;;;;;;;15.32;70.03;99368.22;5038338;28;20056;-62
2022/06/17 01:54:48;;;;;;;6.72;3.78;;;;;;;15.05;69.38;99325.13;5075939;28;20028;-62
2022/06/17 01:57:19;;;;;;;7.43;3.60;;;;;;;15.24;69.71;99362.50;5048000;28;20382;-62
2022/06/17 01:59:53;;;;;;;7.53;3.33;;;;;;;15.02;70.08;99320.91;5060974;28;20032;-62
2022/06/17 02:02:21;;;;;;;5.85;3.22;;;;;;;15.29;69.05;99373.59;5062782;28;20037;-62
2022/06/17 02:04:57;;;;;;;6.18;3.30;;;;;;;15.38;69.45;99371.44;5038450;28;20144;-62
2022/06/17 02:07:31;;;;;;;6.10;3.25;;;;;;;15.14;68.91;99332.56;5038391;28;20025;-65
2022/06/17 02:09:57;;;;;;;6.22;3.78;;;;;;;15.39;68.74;99366.19;5038379;28;20037;-65
2022/06/17 02:12:24;;;;;;;7.10;3.60;;;;;;;15.52;68.88;99387.34;5071066;28;20027;-65
2022/06/17 02:14:53;;;;;;;5.15;2.85;;;;;;;15.60;68.43;99384.34;5078334;28;20636;-65
2022/06/17 02:17:20;;;;;;;7.10;3.60;;;;;;;15.59;68.33;99373.09;5077909;28;20038;-65
2022/06/17 02:19:46;;;;;;;5.22;3.47;;;;;;;15.67;67.39;99378.75;5078376;28;20443;-64
2022/06/17 02:22:24;;;;;;;7.80;2.90;;;;;;;15.52;66.58;99332.53;5078168;28;20028;-64
2022/06/17 02:24:52;;;;;;;7.13;2.63;;;;;;;15.84;65.98;99374.53;5078177;28;20565;-64
2022/06/17 02:27:19;;;;;;;7.75;2.90;;;;;;;15.92;66.74;99387.22;5046490;28;20025;-64
2022/06/17 02:29:47;;;;;;;5.50;2.55;;;;;;;15.94;67.37;99386.22;5057224;28;20075;-64
2022/06/17 02:32:13;;;;;;;6.00;2.90;;;;;;;15.90;66.75;99382.06;5064540;28;20032;-64
2022/06/17 02:34:53;;;;;;;6.53;2.88;;;;;;;15.90;66.25;99371.63;5078195;28;20028;-64
2022/06/17 02:37:19;;;;;;;5.13;2.50;;;;;;;16.04;66.27;99384.03;5078344;28;20044;-64
2022/06/17 02:39:50;;;;;;;5.47;2.42;;;;;;;15.75;65.30;99336.63;5078003;28;20036;-64
2022/06/17 02:42:20;;;;;;;4.40;2.67;;;;;;;15.79;66.38;99332.13;5047130;28;20026;-64
2022/06/17 02:44:48;;;;;;;4.72;3.13;;;;;;;15.86;65.73;99347.44;5060099;28;20103;-64
2022/06/17 02:47:14;;;;;;;5.55;2.70;;;;;;;16.08;65.73;99376.91;5058568;28;20120;-64
2022/06/17 02:49:42;;;;;;;5.35;2.80;;;;;;;16.09;65.47;99371.59;5059884;28;20029;-64
2022/06/17 02:52:15;;;;;;;6.05;2.30;;;;;;;16.01;65.30;99345.81;5077984;28;20032;-64
2022/06/17 02:54:44;;;;;;;7.35;2.40;;;;;;;16.30;65.78;99387.94;5055774;28;20478;-64
2022/06/17 02:57:26;;;;;;;5.32;2.40;;;;;;;16.18;64.81;99333.72;5040256;28;20033;-63
2022/06/17 02:59:59;;;;;;;5.40;2.30;;;;;;;16.54;64.45;99382.41;5058207;28;20103;-64
2022/06/17 03:02:51;;;;;;;4.75;2.30;;;;;;;16.69;63.67;99381.63;5074487;28;20025;-64
2022/06/17 03:05:29;;;;;;;3.53;2.10;;;;;;;16.79;62.74;99383.75;5071160;28;20040;-64
2022/06/17 03:07:56;;;;;;;3.63;2.10;;;;;;;16.83;62.69;99373.06;5070676;28;20424;-64
2022/06/17 03:10:31;;;;;;;5.07;2.00;;;;;;;16.88;62.15;99375.47;5054512;28;20470;-64
2022/06/17 03:13:05;;;;;;;3.88;2.10;;;;;;;16.64;62.29;99331.34;5034597;28;20036;-64
2022/06/17 03:15:31;;;;;;;5.47;2.33;;;;;;;16.94;62.48;99382.16;5068719;28;20036;-64
2022/06/17 03:17:57;;;;;;;2.17;1.95;;;;;;;17.01;62.10;99375.66;5049197;28;20025;-64
2022/06/17 03:20:26;;;;;;;6.30;2.15;;;;;;;17.00;62.14;99358.28;5034137;28;20041;-65
2022/06/17 03:22:59;;;;;;;3.17;2.03;;;;;;;16.97;61.76;99335.72;5036420;28;20486;-64
2022/06/17 03:25:38;;;;;;;2.67;2.00;;;;;;;17.04;61.70;99326.63;5054145;28;20494;-64
2022/06/17 03:28:08;;;;;;;2.42;1.95;;;;;;;17.14;60.95;99336.59;5039010;28;20017;-64
2022/06/17 03:30:38;;;;;;;5.82;1.95;;;;;;;17.50;61.21;99400.97;5054061;28;20104;-65
2022/06/17 03:33:11;;;;;;;5.20;1.90;;;;;;;17.54;61.10;99379.78;5067635;28;20040;-64
2022/06/17 03:35:39;;;;;;;3.33;1.98;;;;;;;17.61;60.29;99377.66;5072659;28;20039;-64
2022/06/17 03:38:27;;;;;;;6.43;2.20;;;;;;;17.64;60.29;99377.47;5063457;28;20057;-64
2022/06/17 03:41:00;;;;;;;4.50;2.15;;;;;;;17.40;60.83;99333.41;5040120;28;20024;-64
2022/06/17 03:43:32;;;;;;;3.75;1.85;;;;;;;17.75;59.95;99375.09;5058885;28;20033;-64
2022/06/17 03:46:06;;;;;;;1.83;1.67;;;;;;;17.67;59.06;99330.19;5042300;28;20116;-64
2022/06/17 03:48:54;;;;;;;3.50;1.83;;;;;;;17.83;58.61;99330.16;5053699;28;20382;-63
2022/06/17 03:51:22;;;;;;;5.45;1.52;;;;;;;18.33;57.84;99382.34;5053495;28;20108;-62
2022/06/17 03:53:49;;;;;;;2.92;1.88;;;;;;;18.42;58.16;99380.03;5053887;28;20025;-64
2022/06/17 03:56:31;;;;;;;4.93;1.75;;;;;;;18.45;57.88;99384.25;5047462;28;20053;-63
2022/06/17 03:59:00;;;;;;;3.85;1.73;;;;;;;18.16;58.52;99331.78;5033437;28;20079;-63
2022/06/17 04:01:41;;;;;;;2.85;1.70;;;;;;;18.53;57.48;99379.41;5032630;28;20034;-63
2022/06/17 04:04:15;;;;;;;6.50;1.83;;;;;;;18.52;57.62;99380.34;5033638;28;20026;-62
2022/06/17 04:06:45;;;;;;;1.65;1.55;;;;;;;18.55;57.77;99374.06;5066189;28;20033;-63
2022/06/17 04:09:14;;;;;;;4.32;1.67;;;;;;;18.69;57.96;99381.97;5039587;28;20029;-62
2022/06/17 04:11:42;;;;;;;2.72;1.80;;;;;;;18.75;58.37;99384.22;5033417;28;20506;-63
2022/06/17 04:14:49;;;;;;;3.30;1.90;;;;;;;18.77;58.02;99384.97;5033209;28;20534;-61
2022/06/17 04:17:19;;;;;;;4.40;2.30;;;;;;;18.84;57.98;99384.59;5026967;28;20079;-62
2022/06/17 04:19:53;;;;;;;3.40;2.08;;;;;;;18.62;57.39;99329.00;5051121;28;20029;-63
2022/06/17 04:22:23;;;;;;;2.92;1.67;;;;;;;18.93;57.36;99381.47;5033153;28;20089;-62
2022/06/17 04:24:56;;;;;;;4.88;2.00;;;;;;;18.72;58.00;99329.31;5033259;28;20028;-63
2022/06/17 04:27:23;;;;;;;2.33;1.80;;;;;;;19.03;58.24;99384.38;5031650;28;20406;-63
2022/06/17 04:29:53;;;;;;;2.65;1.73;;;;;;;18.80;58.04;99336.72;5052428;28;20128;-62
2022/06/17 04:32:28;;;;;;;3.88;2.05;;;;;;;19.10;57.89;99378.63;5059208;28;20028;-62
2022/06/17 04:34:53;;;;;;;3.55;1.60;;;;;;;19.14;56.33;99368.78;5066803;28;20120;-63
2022/06/17 04:37:21;;;;;;;4.55;1.90;;;;;;;19.15;56.88;99359.97;5031326;28;20128;-63
2022/06/17 04:39:56;;;;;;;3.53;1.85;;;;;;;19.31;56.96;99372.97;5063545;28;20082;-63
2022/06/17 04:42:42;;;;;;;3.53;1.80;;;;;;;19.07;56.82;99336.81;5042252;28;20406;-63
2022/06/17 04:45:28;;;;;;;4.53;1.60;;;;;;;19.33;56.41;99380.78;5032854;28;20030;-64
2022/06/17 04:47:55;;;;;;;2.47;1.60;;;;;;;19.37;56.44;99369.97;5032123;28;20113;-63
2022/06/17 04:50:24;;;;;;;5.65;1.80;;;;;;;19.48;57.28;99377.16;5032619;28;20037;-64
2022/06/17 04:52:51;;;;;;;3.42;1.70;;;;;;;19.54;56.42;99376.78;5032191;28;20029;-63
2022/06/17 04:55:37;;;;;;;4.72;1.90;;;;;;;19.38;56.11;99334.91;5048595;28;20029;-63
2022/06/17 04:58:03;;;;;;;3.00;1.77;;;;;;;19.64;56.17;99362.13;5032449;28;20040;-64
2022/06/17 05:00:29;;;;;;;2.22;1.67;;;;;;;19.48;56.69;99371.91;5031980;28;20061;-63
2022/06/17 05:02:55;;;;;;;2.00;1.70;;;;;;;19.49;56.99;99365.72;5031972;28;20021;-64
2022/06/17 05:05:33;;;;;;;4.00;1.83;;;;;;;19.38;56.15;99321.78;5044098;28;20116;-63
2022/06/17 05:08:03;;;;;;;4.70;1.70;;;;;;;19.53;55.38;99325.19;5068623;28;20112;-63
2022/06/17 05:10:37;;;;;;;2.40;1.50;;;;;;;19.65;55.56;99326.16;5052134;28;20104;-63
2022/06/17 05:13:12;;;;;;;3.55;1.70;;;;;;;19.89;55.11;99334.25;5032329;28;20049;-63
2022/06/17 05:15:37;;;;;;;6.15;1.48;;;;;;;20.12;54.89;99345.91;5032144;28;20491;-63
2022/06/17 05:18:03;;;;;;;2.45;1.50;;;;;;;20.26;53.97;99371.25;5031545;28;20037;-64
2022/06/17 05:20:29;;;;;;;2.13;1.40;;;;;;;20.19;54.17;99375.25;5031685;28;20040;-63
2022/06/17 05:23:05;;;;;;;8.48;1.52;;;;;;;20.37;53.06;99378.44;5037525;28;20033;-63
2022/06/17 05:25:36;;;;;;;2.47;1.42;;;;;;;20.35;52.94;99373.28;5072037;28;20442;-63
2022/06/17 05:28:02;;;;;;;5.32;1.38;;;;;;;20.46;52.62;99361.19;5036557;28;20032;-63
2022/06/17 05:30:32;;;;;;;3.17;1.50;;;;;;;20.38;51.50;99321.41;5052080;28;20029;-63
2022/06/17 05:32:58;;;;;;;3.17;1.45;;;;;;;20.75;52.42;99364.50;5050642;28;20043;-63
2022/06/17 05:35:24;;;;;;;2.40;1.30;;;;;;;20.82;52.26;99365.75;5051062;28;20036;-63
2022/06/17 05:37:49;;;;;;;4.43;1.77;;;;;;;20.83;52.34;99363.97;5052044;28;20045;-63
2022/06/17 05:40:15;;;;;;;5.43;1.58;;;;;;;20.91;50.95;99353.75;5072023;28;20032;-64
2022/06/17 05:42:44;;;;;;;5.28;1.60;;;;;;;21.01;51.44;99356.56;5037115;28;20025;-63
2022/06/17 05:45:31;;;;;;;1.88;1.75;;;;;;;21.02;50.07;99352.97;5031483;28;20430;-64
2022/06/17 05:47:56;;;;;;;2.55;1.50;;;;;;;21.10;50.27;99353.28;5050356;28;20463;-63
2022/06/17 05:50:24;;;;;;;2.20;1.67;;;;;;;21.18;49.54;99358.03;5051915;28;20044;-64
2022/06/17 05:52:54;;;;;;;2.53;1.38;;;;;;;21.14;49.21;99351.28;5049789;28;20029;-64
2022/06/17 05:55:22;;;;;;;3.15;1.85;;;;;;;21.18;49.38;99352.75;5048641;28;20048;-62
2022/06/17 05:57:47;;;;;;;2.92;2.63;;;;;;;21.31;50.50;99355.34;5069618;28;20036;-62
2022/06/17 06:00:15;;;;;;;3.28;1.50;;;;;;;21.23;51.35;99345.34;5044660;28;20026;-60
2022/06/17 06:02:40;;;;;;;1.50;1.13;;;;;;;21.13;49.28;99318.00;5049603;28;20104;-62
2022/06/17 06:05:07;;;;;;;2.38;1.50;;;;;;;21.35;48.59;99341.00;5071431;28;20103;-62
2022/06/17 06:07:34;;;;;;;3.00;1.50;;;;;;;21.50;49.34;99339.88;5072035;28;20025;-62
2022/06/17 06:10:00;;;;;;;1.88;1.40;;;;;;;21.48;48.03;99343.59;5051775;28;20029;-62
2022/06/17 06:12:53;;;;;;;2.90;1.35;;;;;;;21.42;48.25;99346.66;5051623;28;20033;-62
2022/06/17 06:15:14;;;;;;;3.40;1.50;;;;;;;21.49;47.32;99342.63;5064715;28;20052;-62
2022/06/17 06:17:39;;;;;;;3.60;1.30;;;;;;;21.31;46.81;99336.91;5071368;28;20106;-63
2022/06/17 06:20:06;;;;;;;7.80;1.50;;;;;;;21.42;46.05;99339.63;5063182;28;20040;-64
2022/06/17 06:22:31;;;;;;;5.43;1.60;;;;;;;21.31;45.32;99334.28;5030025;28;20025;-62
2022/06/17 06:24:57;;;;;;;2.45;1.30;;;;;;;21.27;46.06;99330.19;5046119;28;20079;-64
2022/06/17 06:27:22;;;;;;;2.42;1.05;;;;;;;21.19;46.01;99334.22;5062049;28;20029;-63
2022/06/17 06:29:48;;;;;;;1.73;1.20;;;;;;;21.41;46.43;99326.56;5053771;28;20029;-62
2022/06/17 06:32:14;;;;;;;4.30;1.10;;;;;;;21.42;45.82;99325.59;5059725;28;20059;-63
2022/06/17 06:34:39;;;;;;;1.15;1.08;;;;;;;21.43;45.43;99324.63;5074995;28;20036;-63
2022/06/17 06:37:05;;;;;;;1.23;0.70;;;;;;;21.45;44.70;99326.22;5074986;28;20048;-63
2022/06/17 06:39:30;;;;;;;3.50;1.20;;;;;;;21.45;45.48;99326.22;5046144;28;20038;-63
2022/06/17 06:41:56;;;;;;;3.97;1.00;;;;;;;21.49;45.05;99324.19;5070358;28;20022;-63
2022/06/17 06:44:21;;;;;;;6.15;1.20;;;;;;;21.63;44.59;99325.84;5041628;28;20709;-64
2022/06/17 06:46:47;;;;;;;5.03;1.58;;;;;;;21.74;45.33;99323.28;5054659;28;20101;-64
2022/06/17 06:49:12;;;;;;;8.18;1.67;;;;;;;21.72;46.10;99312.00;5054603;28;20124;-61
2022/06/17 06:51:38;;;;;;;3.78;1.40;;;;;;;21.88;45.60;99314.34;5054520;28;20025;-64
2022/06/17 06:54:04;;;;;;;1.75;1.20;;;;;;;21.85;44.06;99312.78;5058886;28;20067;-63
2022/06/17 06:56:29;;;;;;;2.60;1.38;;;;;;;21.88;44.46;99312.53;5046117;28;20091;-63
2022/06/17 06:58:55;;;;;;;2.53;1.05;;;;;;;22.00;45.39;99312.56;5045663;28;20430;-63
2022/06/17 07:01:21;;;;;;;5.32;1.25;;;;;;;21.92;45.08;99310.53;5053447;28;20278;-63
2022/06/17 07:03:46;;;;;;;2.15;1.38;;;;;;;22.11;44.18;99309.16;5039902;28;20025;-64
2022/06/17 07:06:13;;;;;;;1.73;1.20;;;;;;;22.23;43.96;99308.19;5042018;28;20021;-64
2022/06/17 07:08:38;;;;;;;2.13;1.25;;;;;;;22.33;44.04;99305.72;5059852;28;20020;-63
2022/06/17 07:11:06;;;;;;;1.67;1.30;;;;;;;22.24;43.56;99275.59;5042505;28;20513;-63
2022/06/17 07:13:32;;;;;;;2.70;1.17;;;;;;;22.38;41.78;99311.50;5054369;28;20053;-62
2022/06/17 07:15:59;;;;;;;2.17;1.20;;;;;;;22.53;42.88;99293.63;5057021;28;20056;-64
2022/06/17 07:18:35;;;;;;;3.08;1.05;;;;;;;22.43;42.86;99264.47;5067946;28;20111;-63
2022/06/17 07:21:05;;;;;;;8.77;1.70;;;;;;;22.50;42.53;99267.47;5073928;28;20040;-62
2022/06/17 07:23:37;;;;;;;2.58;1.05;;;;;;;22.56;41.43;99288.97;5064693;28;20488;-62
2022/06/17 07:26:08;;;;;;;2.15;1.45;;;;;;;22.38;41.73;99267.47;5057114;28;20108;-63
2022/06/17 07:28:34;;;;;;;3.33;1.27;;;;;;;22.71;42.54;99288.72;5071754;28;20048;-64
2022/06/17 07:30:59;;;;;;;2.63;1.20;;;;;;;22.72;42.76;99303.59;5051792;28;20029;-62
2022/06/17 07:33:28;;;;;;;3.17;1.20;;;;;;;22.27;42.32;99296.44;5050105;28;20497;-62
2022/06/17 07:35:57;;;;;;;2.85;1.58;;;;;;;21.96;41.95;99248.69;5040153;28;20068;-61
2022/06/17 07:41:16;;;;;;;2.63;1.30;;;;;;;22.42;43.75;99302.41;5033739;28;20044;-63
2022/06/17 07:43:42;;;;;;;4.53;1.58;;;;;;;22.18;44.32;99279.53;5034090;28;20033;-64
2022/06/17 07:46:08;;;;;;;3.10;1.40;;;;;;;22.24;43.95;99296.69;5033888;28;20033;-63
2022/06/17 07:48:35;;;;;;;3.13;1.30;;;;;;;22.32;44.56;99296.09;5064605;28;20029;-64
2022/06/17 07:51:01;;;;;;;2.47;1.20;;;;;;;22.43;42.42;99297.94;5057025;28;20532;-62
2022/06/17 07:53:29;;;;;;;2.35;1.30;;;;;;;22.32;43.17;99253.88;5058568;28;20025;-62
2022/06/17 07:55:57;;;;;;;1.50;1.10;;;;;;;22.62;43.07;99287.66;5051630;28;20517;-62
2022/06/17 07:58:23;;;;;;;2.45;1.17;;;;;;;22.69;44.47;99294.13;5052918;28;20090;-62
2022/06/17 08:00:49;;;;;;;1.73;1.00;;;;;;;22.57;43.60;99293.28;5050241;28;20025;-63
2022/06/17 08:03:18;;;;;;;1.58;1.30;;;;;;;22.31;44.72;99246.94;5063467;28;20028;-62
2022/06/17 08:05:50;;;;;;;2.03;1.70;;;;;;;22.29;45.25;99298.97;5072828;28;20016;-62
2022/06/17 08:08:21;;;;;;;1.52;1.10;;;;;;;22.22;44.42;99280.16;5072237;28;20115;-62
2022/06/17 08:10:53;;;;;;;2.13;1.20;;;;;;;22.01;42.58;99259.72;5072579;28;20044;-62
2022/06/17 08:13:19;;;;;;;3.72;1.55;;;;;;;22.17;45.34;99311.31;5071687;28;20031;-62
2022/06/17 08:15:46;;;;;;;3.60;1.30;;;;;;;21.68;50.65;99323.72;5039771;28;20391;-61
2022/06/17 08:18:12;;;;;;;1.67;1.50;;;;;;;21.30;52.80;99351.84;5033049;28;20026;-62
2022/06/17 08:20:38;;;;;;;8.95;3.08;;;;;;;20.84;59.52;99340.16;5047733;28;20016;-62
2022/06/17 08:23:06;;;;;;;7.00;2.33;;;;;;;20.43;61.47;99285.13;5071105;28;20024;-61
2022/06/17 08:25:33;;;;;;;7.65;2.33;;;;;;;20.77;62.42;99322.28;5053535;28;20031;-62
2022/06/17 08:28:02;;;;;;;3.40;2.35;;;;;;;20.62;65.95;99319.75;5071815;28;20020;-62
2022/06/17 08:30:33;;;;;;;2.83;1.98;;;;;;;20.65;67.55;99309.00;5058598;28;20025;-62
2022/06/17 08:32:59;;;;;;;5.03;1.90;;;;;;;20.75;65.80;99306.59;5042886;28;20119;-62
2022/06/17 08:35:34;;;;;;;2.67;1.95;;;;;;;20.86;66.12;99296.16;5038064;28;20474;-61
2022/06/17 08:38:07;;;;;;;5.10;2.30;;;;;;;20.86;60.05;99253.19;5050942;28;20041;-61
2022/06/17 08:40:35;;;;;;;1.70;1.55;;;;;;;21.31;58.92;99294.75;5032725;28;20079;-61
2022/06/17 08:43:01;;;;;;;1.73;1.63;;;;;;;21.44;59.00;99298.19;5032509;28;20497;-61
2022/06/17 08:45:48;;;;;;;2.20;1.42;;;;;;;21.60;58.62;99291.81;5032564;28;20109;-61
2022/06/17 08:49:04;;;;;;;4.38;1.83;;;;;;;21.68;56.59;99290.28;5031277;28;20132;-61
2022/06/17 08:51:44;;;;;;;5.25;1.45;;;;;;;21.85;55.49;99282.94;5026859;28;20033;-62
2022/06/17 08:54:47;;;;;;;2.75;1.70;;;;;;;21.89;55.73;99289.66;5048706;28;20053;-61
2022/06/17 08:57:41;;;;;;;2.53;1.73;;;;;;;21.88;56.91;99280.91;5040664;28;20033;-61
2022/06/17 09:00:12;;;;;;;5.28;1.95;;;;;;;21.81;58.43;99282.31;5032442;28;20036;-61
2022/06/17 09:03:06;;;;;;;2.05;1.80;;;;;;;21.79;55.64;99275.47;5032739;28;20049;-61
2022/06/17 09:05:40;;;;;;;4.20;1.92;;;;;;;21.85;54.91;99269.75;5022006;28;20069;-62
2022/06/17 09:08:15;;;;;;;2.92;2.00;;;;;;;21.82;57.26;99265.56;5032455;28;20558;-62
2022/06/17 09:10:59;;;;;;;2.60;1.90;;;;;;;21.79;55.40;99267.56;5032490;28;20049;-63
2022/06/17 09:13:27;;;;;;;2.22;1.90;;;;;;;21.76;53.90;99260.72;5032729;28;20057;-62
2022/06/17 09:16:09;;;;;;;4.10;2.17;;;;;;;21.47;53.60;99236.53;5032325;28;20031;-63
2022/06/17 09:18:38;;;;;;;4.22;1.73;;;;;;;21.69;54.50;99273.53;5047183;28;20029;-62
2022/06/17 09:21:28;;;;;;;3.70;1.90;;;;;;;21.39;56.70;99260.78;5084056;28;20039;-62
2022/06/17 09:23:59;;;;;;;3.40;1.90;;;;;;;20.98;56.24;99314.66;5043011;28;20035;-62
2022/06/17 09:26:40;;;;;;;3.88;1.60;;;;;;;20.81;52.38;99323.75;5031950;28;20033;-62
2022/06/17 09:29:20;;;;;;;5.82;1.50;;;;;;;20.50;57.43;99331.09;5034501;28;20030;-63
2022/06/17 09:31:50;;;;;;;11.88;2.78;;;;;;;20.08;60.71;99283.94;5052370;28;20079;-62
2022/06/17 09:34:44;;;;;;;4.18;1.70;;;;;;;20.05;63.91;99301.69;5032252;28;20152;-62
2022/06/17 09:37:18;;;;;;;6.35;1.60;;;;;;;19.72;63.71;99326.63;5051309;28;20144;-62
2022/06/17 09:39:48;;;;;;;4.45;1.70;;;;;;;19.62;65.60;99331.63;5036112;28;20063;-62
2022/06/17 09:42:21;;;;;;;4.80;1.70;;;;;;;19.43;67.58;99298.66;5031704;28;20029;-61
2022/06/17 09:44:57;;;;;;;5.50;2.45;;;;;;;19.73;67.06;99341.44;5032272;28;20026;-62
2022/06/17 09:47:31;;;;;;;6.20;2.55;;;;;;;19.82;67.51;99336.47;5041358;28;20473;-61
2022/06/17 09:50:11;;;;;;;4.50;2.22;;;;;;;19.99;67.66;99339.75;5071864;28;20115;-62
2022/06/17 09:52:47;;;;;;;8.20;2.40;;;;;;;20.12;68.16;99322.25;5031899;28;20076;-62
2022/06/17 09:55:38;;;;;;;8.85;2.50;;;;;;;20.27;66.44;99345.81;5055616;28;20029;-62
2022/06/17 09:58:22;;;;;;;8.40;2.73;;;;;;;20.29;66.79;99323.69;5030738;28;20104;-62
2022/06/17 10:00:53;;;;;;;4.70;2.33;;;;;;;20.38;66.95;99319.63;5031612;28;20040;-62
2022/06/17 10:03:25;;;;;;;6.45;2.53;;;;;;;20.40;65.63;99283.53;5033328;28;20419;-62
2022/06/17 10:06:19;;;;;;;2.88;2.33;;;;;;;20.84;66.48;99327.00;5043976;28;20040;-62
2022/06/17 10:09:30;;;;;;;4.82;2.22;;;;;;;21.14;63.90;99323.16;5055168;28;20103;-62
2022/06/17 10:12:01;;;;;;;2.85;1.85;;;;;;;20.95;57.41;99307.81;5055849;28;20029;-62
2022/06/17 10:14:59;;;;;;;3.90;2.28;;;;;;;21.26;56.90;99316.16;5060536;28;20112;-62
2022/06/17 10:20:58;;;;;;;2.78;1.70;;;;;;;21.49;54.30;99306.59;5048655;28;20108;-62
2022/06/17 10:23:35;;;;;;;2.83;1.75;;;;;;;21.55;54.96;99300.06;5035634;28;20029;-62
2022/06/17 10:26:22;;;;;;;4.43;1.70;;;;;;;21.53;52.17;99299.31;5035156;28;20021;-61
2022/06/17 10:28:48;;;;;;;2.72;1.50;;;;;;;21.68;54.15;99297.38;5035519;28;20053;-62
2022/06/17 10:31:40;;;;;;;1.92;1.23;;;;;;;21.66;50.89;99297.50;5054823;28;20100;-61
2022/06/17 10:34:20;;;;;;;3.17;1.38;;;;;;;21.75;51.61;99281.91;5036790;28;20045;-62
2022/06/17 10:36:46;;;;;;;2.33;1.30;;;;;;;21.85;51.45;99286.41;5034911;28;20054;-61
2022/06/17 10:39:18;;;;;;;2.92;1.50;;;;;;;21.91;50.48;99287.75;5033518;28;20394;-61
2022/06/17 10:41:44;;;;;;;1.40;1.20;;;;;;;21.71;49.84;99278.69;5035186;28;20084;-61
2022/06/17 10:44:15;;;;;;;1.63;1.48;;;;;;;21.83;49.75;99271.66;5040027;28;20037;-62
2022/06/17 10:46:59;;;;;;;2.08;1.30;;;;;;;21.76;50.54;99262.53;5060513;28;20108;-61
2022/06/17 10:49:31;;;;;;;2.72;1.48;;;;;;;21.89;52.34;99264.13;5053610;28;20040;-62
2022/06/17 10:51:58;;;;;;;3.58;1.83;;;;;;;21.74;52.30;99220.47;5054882;28;20100;-62
2022/06/17 10:54:28;;;;;;;2.35;1.85;;;;;;;21.89;51.37;99250.94;5058335;28;20025;-62
2022/06/17 10:56:59;;;;;;;4.13;1.63;;;;;;;21.81;49.63;99265.66;5063359;28;20481;-61
2022/06/17 10:59:31;;;;;;;3.17;1.95;;;;;;;21.58;51.47;99222.56;5065472;28;20037;-62
2022/06/17 11:01:58;;;;;;;4.40;1.73;;;;;;;21.54;48.76;99266.75;5034834;28;20111;-61
2022/06/17 11:04:36;;;;;;;3.50;1.60;;;;;;;21.47;49.13;99252.31;5034952;28;20044;-62
2022/06/17 11:07:28;;;;;;;7.88;1.75;;;;;;;21.51;50.35;99266.97;5034646;28;20029;-61
2022/06/17 11:10:12;;;;;;;4.00;1.80;;;;;;;21.59;50.35;99272.53;5024700;28;20034;-62
2022/06/17 11:12:40;;;;;;;2.60;1.52;;;;;;;21.46;52.12;99274.34;5050462;28;20044;-63
2022/06/17 11:15:23;;;;;;;2.80;2.28;;;;;;;21.11;54.69;99248.81;5053729;28;20059;-62
2022/06/17 11:17:51;;;;;;;3.90;2.20;;;;;;;20.85;56.77;99241.81;5050669;28;20033;-62
2022/06/17 11:20:24;;;;;;;5.38;2.30;;;;;;;20.86;59.09;99283.00;5074119;28;20024;-62
2022/06/17 11:22:51;;;;;;;5.75;2.13;;;;;;;20.72;58.45;99277.00;5074308;28;20033;-62
2022/06/17 11:25:25;;;;;;;3.95;2.20;;;;;;;20.35;60.14;99243.53;5034877;28;20032;-62
2022/06/17 11:27:56;;;;;;;7.68;2.22;;;;;;;20.28;62.56;99222.09;5034483;28;20045;-62
2022/06/17 11:30:25;;;;;;;3.47;2.30;;;;;;;20.51;65.20;99269.66;5046132;28;20380;-61
2022/06/17 11:32:52;;;;;;;4.93;2.63;;;;;;;20.39;66.57;99254.69;5046477;28;20087;-61
2022/06/17 11:35:40;;;;;;;4.32;2.83;;;;;;;19.94;67.85;99223.59;5034348;28;20388;-61
2022/06/17 11:38:16;;;;;;;4.80;2.75;;;;;;;19.99;70.51;99259.13;5036724;28;20629;-62
2022/06/17 11:40:51;;;;;;;3.10;2.60;;;;;;;19.89;71.27;99288.75;5074098;28;20111;-62
2022/06/17 11:43:43;;;;;;;4.95;2.65;;;;;;;19.92;71.60;99273.59;5034824;28;20099;-61
2022/06/17 11:46:19;;;;;;;6.80;3.17;;;;;;;19.97;70.20;99279.41;5037258;28;20080;-61
2022/06/17 11:48:49;;;;;;;4.18;2.97;;;;;;;19.77;72.25;99267.56;5033826;28;20116;-62
2022/06/17 11:51:26;;;;;;;3.75;2.90;;;;;;;19.85;75.03;99305.66;5042946;28;20425;-61
2022/06/17 11:53:57;;;;;;;4.45;2.67;;;;;;;19.61;71.62;99294.00;5053640;28;20016;-62
2022/06/17 11:56:46;;;;;;;4.70;3.08;;;;;;;19.63;73.86;99300.00;5049808;28;20101;-61
2022/06/17 11:59:14;;;;;;;5.53;3.05;;;;;;;19.52;71.02;99312.16;5032484;28;20037;-61
2022/06/17 12:01:53;;;;;;;7.35;3.38;;;;;;;19.59;71.77;99313.44;5053540;28;20024;-61
2022/06/17 12:04:34;;;;;;;4.07;2.97;;;;;;;19.55;72.86;99301.44;5033985;28;20117;-61
2022/06/17 12:07:00;;;;;;;5.32;3.00;;;;;;;19.46;72.82;99295.84;5082530;28;20021;-61
2022/06/17 12:09:25;;;;;;;5.75;3.20;;;;;;;19.37;72.42;99301.69;5053266;28;20501;-61